sensor_id;sensor_type;location;lat;lon;timestamp;P1;durP1;ratioP1;P2;durP2;ratioP2
59207;SDS011;44977;53.132;6.408;2022-10-18T00:00:25;20.63;;;17.10;;
59207;SDS011;44977;53.132;6.408;2022-10-18T00:05:25;31.77;;;24.25;;
59207;SDS011;44977;53.132;6.408;2022-10-18T00:10:26;23.40;;;18.40;;
59207;SDS011;44977;53.132;6.408;2022-10-18T00:15:27;21.50;;;17.88;;
59207;SDS011;44977;53.132;6.408;2022-10-18T00:20:28;22.15;;;18.67;;
59207;SDS011;44977;53.132;6.408;2022-10-18T00:25:29;21.23;;;17.77;;
59207;SDS011;44977;53.132;6.408;2022-10-18T00:30:29;24.08;;;19.33;;
59207;SDS011;44977;53.132;6.408;2022-10-18T00:35:32;23.63;;;19.48;;
59207;SDS011;44977;53.132;6.408;2022-10-18T00:40:34;30.08;;;21.60;;
59207;SDS011;44977;53.132;6.408;2022-10-18T00:45:34;25.80;;;19.05;;
59207;SDS011;44977;53.132;6.408;2022-10-18T00:50:35;22.48;;;17.60;;
59207;SDS011;44977;53.132;6.408;2022-10-18T00:55:36;22.83;;;18.30;;
59207;SDS011;44977;53.132;6.408;2022-10-18T01:00:37;20.67;;;17.17;;
59207;SDS011;44977;53.132;6.408;2022-10-18T01:05:40;20.95;;;17.15;;
59207;SDS011;44977;53.132;6.408;2022-10-18T01:16:16;23.40;;;18.38;;
59207;SDS011;44977;53.132;6.408;2022-10-18T01:21:25;22.80;;;17.35;;
59207;SDS011;44977;53.132;6.408;2022-10-18T01:31:52;23.92;;;17.65;;
59207;SDS011;44977;53.132;6.408;2022-10-18T01:36:58;20.85;;;15.82;;
59207;SDS011;44977;53.132;6.408;2022-10-18T01:42:03;20.75;;;16.05;;
59207;SDS011;44977;53.132;6.408;2022-10-18T01:47:08;20.90;;;16.05;;
59207;SDS011;44977;53.132;6.408;2022-10-18T01:52:11;27.65;;;21.23;;
59207;SDS011;44977;53.132;6.408;2022-10-18T01:57:25;42.55;;;25.25;;
59207;SDS011;44977;53.132;6.408;2022-10-18T02:08:05;33.92;;;23.48;;
59207;SDS011;44977;53.132;6.408;2022-10-18T02:13:19;28.38;;;20.08;;
59207;SDS011;44977;53.132;6.408;2022-10-18T02:18:24;25.70;;;22.10;;
59207;SDS011;44977;53.132;6.408;2022-10-18T02:23:29;50.15;;;24.77;;
59207;SDS011;44977;53.132;6.408;2022-10-18T02:28:31;21.27;;;18.95;;
59207;SDS011;44977;53.132;6.408;2022-10-18T02:38:36;29.73;;;21.83;;
59207;SDS011;44977;53.132;6.408;2022-10-18T02:43:40;28.00;;;21.13;;
59207;SDS011;44977;53.132;6.408;2022-10-18T02:48:41;27.65;;;20.40;;
59207;SDS011;44977;53.132;6.408;2022-10-18T02:53:41;22.77;;;18.52;;
59207;SDS011;44977;53.132;6.408;2022-10-18T02:58:42;23.38;;;20.98;;
59207;SDS011;44977;53.132;6.408;2022-10-18T03:03:43;22.13;;;19.85;;
59207;SDS011;44977;53.132;6.408;2022-10-18T03:08:44;23.67;;;21.02;;
59207;SDS011;44977;53.132;6.408;2022-10-18T03:13:44;29.63;;;23.17;;
59207;SDS011;44977;53.132;6.408;2022-10-18T03:18:45;21.08;;;18.88;;
59207;SDS011;44977;53.132;6.408;2022-10-18T03:23:46;54.95;;;25.20;;
59207;SDS011;44977;53.132;6.408;2022-10-18T03:28:46;31.20;;;23.77;;
59207;SDS011;44977;53.132;6.408;2022-10-18T03:33:47;32.88;;;22.15;;
59207;SDS011;44977;53.132;6.408;2022-10-18T03:38:48;24.13;;;21.17;;
59207;SDS011;44977;53.132;6.408;2022-10-18T03:43:48;20.30;;;18.13;;
59207;SDS011;44977;53.132;6.408;2022-10-18T03:48:49;44.10;;;23.90;;
59207;SDS011;44977;53.132;6.408;2022-10-18T03:53:49;23.35;;;19.15;;
59207;SDS011;44977;53.132;6.408;2022-10-18T03:58:50;24.50;;;20.13;;
59207;SDS011;44977;53.132;6.408;2022-10-18T04:03:51;54.60;;;27.83;;
59207;SDS011;44977;53.132;6.408;2022-10-18T04:08:53;79.03;;;33.17;;
59207;SDS011;44977;53.132;6.408;2022-10-18T04:13:54;31.55;;;19.52;;
59207;SDS011;44977;53.132;6.408;2022-10-18T04:18:54;20.67;;;18.05;;
59207;SDS011;44977;53.132;6.408;2022-10-18T04:23:55;20.92;;;17.10;;
59207;SDS011;44977;53.132;6.408;2022-10-18T04:28:56;27.45;;;18.85;;
59207;SDS011;44977;53.132;6.408;2022-10-18T04:33:56;24.83;;;16.40;;
59207;SDS011;44977;53.132;6.408;2022-10-18T04:38:57;19.50;;;17.48;;
59207;SDS011;44977;53.132;6.408;2022-10-18T04:43:58;29.30;;;18.45;;
59207;SDS011;44977;53.132;6.408;2022-10-18T04:48:58;22.58;;;17.70;;
59207;SDS011;44977;53.132;6.408;2022-10-18T04:54:00;68.15;;;23.83;;
59207;SDS011;44977;53.132;6.408;2022-10-18T04:59:01;41.15;;;19.38;;
59207;SDS011;44977;53.132;6.408;2022-10-18T05:04:02;26.25;;;16.00;;
59207;SDS011;44977;53.132;6.408;2022-10-18T05:09:02;38.92;;;16.83;;
59207;SDS011;44977;53.132;6.408;2022-10-18T05:14:03;25.45;;;15.07;;
59207;SDS011;44977;53.132;6.408;2022-10-18T05:19:04;23.17;;;13.43;;
59207;SDS011;44977;53.132;6.408;2022-10-18T05:24:05;20.63;;;14.02;;
59207;SDS011;44977;53.132;6.408;2022-10-18T05:29:06;33.15;;;16.02;;
59207;SDS011;44977;53.132;6.408;2022-10-18T05:34:06;23.42;;;13.88;;
59207;SDS011;44977;53.132;6.408;2022-10-18T05:39:07;18.00;;;13.70;;
59207;SDS011;44977;53.132;6.408;2022-10-18T05:44:08;18.13;;;13.75;;
59207;SDS011;44977;53.132;6.408;2022-10-18T05:49:10;18.48;;;13.27;;
59207;SDS011;44977;53.132;6.408;2022-10-18T05:54:11;19.48;;;12.73;;
59207;SDS011;44977;53.132;6.408;2022-10-18T05:59:13;17.13;;;12.43;;
59207;SDS011;44977;53.132;6.408;2022-10-18T06:04:13;17.88;;;10.73;;
59207;SDS011;44977;53.132;6.408;2022-10-18T06:09:16;17.55;;;11.85;;
59207;SDS011;44977;53.132;6.408;2022-10-18T06:14:17;23.50;;;12.93;;
59207;SDS011;44977;53.132;6.408;2022-10-18T06:19:18;23.30;;;12.40;;
59207;SDS011;44977;53.132;6.408;2022-10-18T06:24:18;18.17;;;12.65;;
59207;SDS011;44977;53.132;6.408;2022-10-18T06:29:20;22.63;;;12.32;;
59207;SDS011;44977;53.132;6.408;2022-10-18T06:34:21;15.68;;;11.43;;
59207;SDS011;44977;53.132;6.408;2022-10-18T06:39:21;18.52;;;12.38;;
59207;SDS011;44977;53.132;6.408;2022-10-18T06:44:22;38.80;;;12.18;;
59207;SDS011;44977;53.132;6.408;2022-10-18T06:49:23;23.55;;;11.50;;
59207;SDS011;44977;53.132;6.408;2022-10-18T06:54:24;51.30;;;14.52;;
59207;SDS011;44977;53.132;6.408;2022-10-18T06:59:24;35.90;;;10.95;;
59207;SDS011;44977;53.132;6.408;2022-10-18T07:04:28;12.90;;;10.50;;
59207;SDS011;44977;53.132;6.408;2022-10-18T07:09:32;13.07;;;9.70;;
59207;SDS011;44977;53.132;6.408;2022-10-18T07:14:32;10.68;;;8.70;;
59207;SDS011;44977;53.132;6.408;2022-10-18T07:19:33;24.80;;;10.75;;
59207;SDS011;44977;53.132;6.408;2022-10-18T07:24:34;15.65;;;8.27;;
59207;SDS011;44977;53.132;6.408;2022-10-18T07:29:34;17.98;;;9.32;;
59207;SDS011;44977;53.132;6.408;2022-10-18T07:34:38;12.93;;;8.20;;
59207;SDS011;44977;53.132;6.408;2022-10-18T07:39:39;22.15;;;8.40;;
59207;SDS011;44977;53.132;6.408;2022-10-18T07:44:39;14.75;;;9.18;;
59207;SDS011;44977;53.132;6.408;2022-10-18T07:49:40;11.43;;;8.30;;
59207;SDS011;44977;53.132;6.408;2022-10-18T07:54:41;12.00;;;8.40;;
59207;SDS011;44977;53.132;6.408;2022-10-18T07:59:41;11.43;;;8.32;;
59207;SDS011;44977;53.132;6.408;2022-10-18T08:04:45;16.88;;;10.07;;
59207;SDS011;44977;53.132;6.408;2022-10-18T08:09:45;10.10;;;8.27;;
59207;SDS011;44977;53.132;6.408;2022-10-18T08:14:46;11.43;;;9.25;;
59207;SDS011;44977;53.132;6.408;2022-10-18T08:19:47;12.45;;;10.15;;
59207;SDS011;44977;53.132;6.408;2022-10-18T08:24:48;11.20;;;9.20;;
59207;SDS011;44977;53.132;6.408;2022-10-18T08:29:49;13.35;;;10.00;;
59207;SDS011;44977;53.132;6.408;2022-10-18T08:34:49;12.23;;;9.75;;
59207;SDS011;44977;53.132;6.408;2022-10-18T08:39:50;11.93;;;8.57;;
59207;SDS011;44977;53.132;6.408;2022-10-18T08:44:51;13.05;;;8.25;;
59207;SDS011;44977;53.132;6.408;2022-10-18T08:49:56;13.23;;;8.82;;
59207;SDS011;44977;53.132;6.408;2022-10-18T08:55:13;11.60;;;8.43;;
59207;SDS011;44977;53.132;6.408;2022-10-18T09:00:22;12.77;;;7.40;;
59207;SDS011;44977;53.132;6.408;2022-10-18T09:15:54;12.27;;;6.67;;
59207;SDS011;44977;53.132;6.408;2022-10-18T09:21:20;13.75;;;6.30;;
59207;SDS011;44977;53.132;6.408;2022-10-18T09:26:40;12.50;;;4.47;;
59207;SDS011;44977;53.132;6.408;2022-10-18T09:36:55;12.82;;;4.40;;
59207;SDS011;44977;53.132;6.408;2022-10-18T09:42:44;12.25;;;4.18;;
59207;SDS011;44977;53.132;6.408;2022-10-18T09:47:34;15.43;;;4.72;;
59207;SDS011;44977;53.132;6.408;2022-10-18T09:53:05;12.38;;;4.05;;
59207;SDS011;44977;53.132;6.408;2022-10-18T09:58:16;13.32;;;3.00;;
59207;SDS011;44977;53.132;6.408;2022-10-18T10:03:19;16.70;;;2.80;;
59207;SDS011;44977;53.132;6.408;2022-10-18T10:08:21;11.15;;;2.33;;
59207;SDS011;44977;53.132;6.408;2022-10-18T10:13:31;11.82;;;2.90;;
59207;SDS011;44977;53.132;6.408;2022-10-18T10:18:33;12.73;;;2.90;;
59207;SDS011;44977;53.132;6.408;2022-10-18T10:23:36;12.32;;;2.30;;
59207;SDS011;44977;53.132;6.408;2022-10-18T10:28:43;13.75;;;2.25;;
59207;SDS011;44977;53.132;6.408;2022-10-18T10:33:47;12.27;;;2.30;;
59207;SDS011;44977;53.132;6.408;2022-10-18T10:39:15;11.85;;;2.58;;
59207;SDS011;44977;53.132;6.408;2022-10-18T10:44:22;9.38;;;2.38;;
59207;SDS011;44977;53.132;6.408;2022-10-18T10:54:34;12.52;;;2.42;;
59207;SDS011;44977;53.132;6.408;2022-10-18T10:59:48;12.77;;;2.30;;
59207;SDS011;44977;53.132;6.408;2022-10-18T11:04:51;13.23;;;2.63;;
59207;SDS011;44977;53.132;6.408;2022-10-18T11:20:23;11.00;;;2.22;;
59207;SDS011;44977;53.132;6.408;2022-10-18T11:36:26;10.52;;;2.10;;
59207;SDS011;44977;53.132;6.408;2022-10-18T11:41:37;11.82;;;2.35;;
59207;SDS011;44977;53.132;6.408;2022-10-18T11:52:03;11.05;;;2.30;;
59207;SDS011;44977;53.132;6.408;2022-10-18T12:02:40;9.65;;;1.92;;
59207;SDS011;44977;53.132;6.408;2022-10-18T12:08:04;10.73;;;2.20;;
59207;SDS011;44977;53.132;6.408;2022-10-18T12:13:11;10.60;;;2.10;;
59207;SDS011;44977;53.132;6.408;2022-10-18T12:18:20;13.27;;;2.67;;
59207;SDS011;44977;53.132;6.408;2022-10-18T12:23:36;11.85;;;2.60;;
59207;SDS011;44977;53.132;6.408;2022-10-18T12:39:24;9.63;;;2.15;;
59207;SDS011;44977;53.132;6.408;2022-10-18T12:44:30;8.98;;;2.08;;
59207;SDS011;44977;53.132;6.408;2022-10-18T12:49:34;10.93;;;2.10;;
59207;SDS011;44977;53.132;6.408;2022-10-18T12:54:37;9.10;;;1.95;;
59207;SDS011;44977;53.132;6.408;2022-10-18T12:59:39;10.32;;;2.17;;
59207;SDS011;44977;53.132;6.408;2022-10-18T13:04:40;10.05;;;2.25;;
59207;SDS011;44977;53.132;6.408;2022-10-18T13:09:41;11.40;;;2.13;;
59207;SDS011;44977;53.132;6.408;2022-10-18T13:15:04;9.18;;;1.95;;
59207;SDS011;44977;53.132;6.408;2022-10-18T13:20:39;9.60;;;1.95;;
59207;SDS011;44977;53.132;6.408;2022-10-18T13:41:18;10.50;;;1.85;;
59207;SDS011;44977;53.132;6.408;2022-10-18T13:46:22;9.45;;;2.00;;
59207;SDS011;44977;53.132;6.408;2022-10-18T13:56:54;9.82;;;2.15;;
59207;SDS011;44977;53.132;6.408;2022-10-18T14:07:15;10.45;;;2.20;;
59207;SDS011;44977;53.132;6.408;2022-10-18T14:22:53;12.30;;;2.30;;
59207;SDS011;44977;53.132;6.408;2022-10-18T14:28:11;9.68;;;2.15;;
59207;SDS011;44977;53.132;6.408;2022-10-18T14:33:22;10.43;;;2.25;;
59207;SDS011;44977;53.132;6.408;2022-10-18T14:38:24;13.40;;;2.08;;
59207;SDS011;44977;53.132;6.408;2022-10-18T14:43:24;12.18;;;2.78;;
59207;SDS011;44977;53.132;6.408;2022-10-18T14:48:25;12.77;;;2.20;;
59207;SDS011;44977;53.132;6.408;2022-10-18T14:53:26;10.73;;;2.38;;
59207;SDS011;44977;53.132;6.408;2022-10-18T14:58:34;12.80;;;2.42;;
59207;SDS011;44977;53.132;6.408;2022-10-18T15:03:36;12.27;;;2.40;;
59207;SDS011;44977;53.132;6.408;2022-10-18T15:08:38;8.95;;;2.08;;
59207;SDS011;44977;53.132;6.408;2022-10-18T15:13:43;13.45;;;2.30;;
59207;SDS011;44977;53.132;6.408;2022-10-18T15:19:06;10.43;;;1.98;;
59207;SDS011;44977;53.132;6.408;2022-10-18T15:29:26;11.40;;;2.30;;
59207;SDS011;44977;53.132;6.408;2022-10-18T15:34:31;7.40;;;1.65;;
59207;SDS011;44977;53.132;6.408;2022-10-18T15:39:32;8.32;;;1.55;;
59207;SDS011;44977;53.132;6.408;2022-10-18T15:44:34;9.68;;;2.00;;
59207;SDS011;44977;53.132;6.408;2022-10-18T15:49:57;8.25;;;1.75;;
59207;SDS011;44977;53.132;6.408;2022-10-18T15:54:59;8.57;;;2.08;;
59207;SDS011;44977;53.132;6.408;2022-10-18T16:00:05;9.65;;;1.90;;
59207;SDS011;44977;53.132;6.408;2022-10-18T16:05:07;9.05;;;2.08;;
59207;SDS011;44977;53.132;6.408;2022-10-18T16:10:16;8.80;;;2.30;;
59207;SDS011;44977;53.132;6.408;2022-10-18T16:15:16;10.52;;;2.22;;
59207;SDS011;44977;53.132;6.408;2022-10-18T16:20:19;9.35;;;2.63;;
59207;SDS011;44977;53.132;6.408;2022-10-18T16:25:22;9.38;;;2.22;;
59207;SDS011;44977;53.132;6.408;2022-10-18T16:30:22;8.85;;;2.00;;
59207;SDS011;44977;53.132;6.408;2022-10-18T16:35:30;9.43;;;1.83;;
59207;SDS011;44977;53.132;6.408;2022-10-18T16:40:30;9.55;;;2.00;;
59207;SDS011;44977;53.132;6.408;2022-10-18T16:45:31;7.10;;;1.73;;
59207;SDS011;44977;53.132;6.408;2022-10-18T16:50:32;9.70;;;2.17;;
59207;SDS011;44977;53.132;6.408;2022-10-18T16:55:33;12.82;;;2.53;;
59207;SDS011;44977;53.132;6.408;2022-10-18T17:00:33;7.90;;;2.00;;
59207;SDS011;44977;53.132;6.408;2022-10-18T17:05:34;9.98;;;2.05;;
59207;SDS011;44977;53.132;6.408;2022-10-18T17:10:35;7.22;;;1.77;;
59207;SDS011;44977;53.132;6.408;2022-10-18T17:15:37;7.55;;;1.75;;
59207;SDS011;44977;53.132;6.408;2022-10-18T17:20:41;9.40;;;2.00;;
59207;SDS011;44977;53.132;6.408;2022-10-18T17:25:43;10.23;;;2.35;;
59207;SDS011;44977;53.132;6.408;2022-10-18T17:30:45;9.25;;;1.85;;
59207;SDS011;44977;53.132;6.408;2022-10-18T17:35:47;8.40;;;1.83;;
59207;SDS011;44977;53.132;6.408;2022-10-18T17:40:48;8.70;;;1.98;;
59207;SDS011;44977;53.132;6.408;2022-10-18T17:45:54;9.15;;;2.03;;
59207;SDS011;44977;53.132;6.408;2022-10-18T17:50:55;7.55;;;1.95;;
59207;SDS011;44977;53.132;6.408;2022-10-18T17:55:57;10.18;;;3.03;;
59207;SDS011;44977;53.132;6.408;2022-10-18T18:01:14;9.38;;;2.67;;
59207;SDS011;44977;53.132;6.408;2022-10-18T18:06:18;8.60;;;2.45;;
59207;SDS011;44977;53.132;6.408;2022-10-18T18:11:36;8.55;;;2.58;;
59207;SDS011;44977;53.132;6.408;2022-10-18T18:16:38;8.23;;;2.20;;
59207;SDS011;44977;53.132;6.408;2022-10-18T18:21:41;9.15;;;1.98;;
59207;SDS011;44977;53.132;6.408;2022-10-18T18:26:42;7.43;;;1.70;;
59207;SDS011;44977;53.132;6.408;2022-10-18T18:31:42;9.43;;;1.98;;
59207;SDS011;44977;53.132;6.408;2022-10-18T18:36:43;10.20;;;2.20;;
59207;SDS011;44977;53.132;6.408;2022-10-18T18:41:45;7.45;;;2.05;;
59207;SDS011;44977;53.132;6.408;2022-10-18T18:46:47;7.78;;;2.00;;
59207;SDS011;44977;53.132;6.408;2022-10-18T18:51:48;9.18;;;3.00;;
59207;SDS011;44977;53.132;6.408;2022-10-18T18:56:49;9.00;;;3.00;;
59207;SDS011;44977;53.132;6.408;2022-10-18T19:01:49;8.93;;;2.20;;
59207;SDS011;44977;53.132;6.408;2022-10-18T19:06:50;7.63;;;2.05;;
59207;SDS011;44977;53.132;6.408;2022-10-18T19:11:51;8.85;;;2.50;;
59207;SDS011;44977;53.132;6.408;2022-10-18T19:16:54;7.18;;;2.10;;
59207;SDS011;44977;53.132;6.408;2022-10-18T19:21:58;9.30;;;2.45;;
59207;SDS011;44977;53.132;6.408;2022-10-18T19:27:02;10.18;;;2.58;;
59207;SDS011;44977;53.132;6.408;2022-10-18T19:32:11;8.60;;;2.17;;
59207;SDS011;44977;53.132;6.408;2022-10-18T19:37:14;9.18;;;2.30;;
59207;SDS011;44977;53.132;6.408;2022-10-18T19:42:15;8.98;;;2.00;;
59207;SDS011;44977;53.132;6.408;2022-10-18T19:47:16;8.45;;;2.80;;
59207;SDS011;44977;53.132;6.408;2022-10-18T19:52:16;9.90;;;3.25;;
59207;SDS011;44977;53.132;6.408;2022-10-18T19:57:17;9.18;;;2.38;;
59207;SDS011;44977;53.132;6.408;2022-10-18T20:02:18;9.18;;;2.53;;
59207;SDS011;44977;53.132;6.408;2022-10-18T20:07:18;7.30;;;2.22;;
59207;SDS011;44977;53.132;6.408;2022-10-18T20:12:19;6.50;;;2.08;;
59207;SDS011;44977;53.132;6.408;2022-10-18T20:17:20;6.63;;;2.10;;
59207;SDS011;44977;53.132;6.408;2022-10-18T20:22:21;7.88;;;2.08;;
59207;SDS011;44977;53.132;6.408;2022-10-18T20:27:21;9.13;;;2.00;;
59207;SDS011;44977;53.132;6.408;2022-10-18T20:32:22;7.43;;;2.30;;
59207;SDS011;44977;53.132;6.408;2022-10-18T20:37:23;8.63;;;2.13;;
59207;SDS011;44977;53.132;6.408;2022-10-18T20:42:23;7.30;;;2.00;;
59207;SDS011;44977;53.132;6.408;2022-10-18T20:47:24;11.30;;;2.42;;
59207;SDS011;44977;53.132;6.408;2022-10-18T20:52:25;7.72;;;1.88;;
59207;SDS011;44977;53.132;6.408;2022-10-18T20:57:27;9.30;;;2.28;;
59207;SDS011;44977;53.132;6.408;2022-10-18T21:02:29;7.97;;;2.30;;
59207;SDS011;44977;53.132;6.408;2022-10-18T21:07:30;12.48;;;2.38;;
59207;SDS011;44977;53.132;6.408;2022-10-18T21:12:30;10.48;;;2.30;;
59207;SDS011;44977;53.132;6.408;2022-10-18T21:17:31;9.88;;;2.33;;
59207;SDS011;44977;53.132;6.408;2022-10-18T21:22:32;8.75;;;2.47;;
59207;SDS011;44977;53.132;6.408;2022-10-18T21:27:32;8.93;;;2.40;;
59207;SDS011;44977;53.132;6.408;2022-10-18T21:32:33;12.27;;;2.88;;
59207;SDS011;44977;53.132;6.408;2022-10-18T21:37:34;9.10;;;2.90;;
59207;SDS011;44977;53.132;6.408;2022-10-18T21:42:34;8.60;;;2.22;;
59207;SDS011;44977;53.132;6.408;2022-10-18T21:47:35;8.63;;;2.30;;
59207;SDS011;44977;53.132;6.408;2022-10-18T21:52:36;9.50;;;2.30;;
59207;SDS011;44977;53.132;6.408;2022-10-18T21:57:37;9.48;;;2.40;;
59207;SDS011;44977;53.132;6.408;2022-10-18T22:02:37;8.70;;;2.65;;
59207;SDS011;44977;53.132;6.408;2022-10-18T22:07:38;9.77;;;2.60;;
59207;SDS011;44977;53.132;6.408;2022-10-18T22:12:39;10.80;;;2.72;;
59207;SDS011;44977;53.132;6.408;2022-10-18T22:17:39;9.52;;;2.97;;
59207;SDS011;44977;53.132;6.408;2022-10-18T22:22:40;10.10;;;2.75;;
59207;SDS011;44977;53.132;6.408;2022-10-18T22:27:41;8.90;;;3.00;;
59207;SDS011;44977;53.132;6.408;2022-10-18T22:32:41;10.48;;;3.03;;
59207;SDS011;44977;53.132;6.408;2022-10-18T22:37:42;7.80;;;2.58;;
59207;SDS011;44977;53.132;6.408;2022-10-18T22:42:43;8.82;;;3.20;;
59207;SDS011;44977;53.132;6.408;2022-10-18T22:47:44;10.18;;;2.92;;
59207;SDS011;44977;53.132;6.408;2022-10-18T22:52:44;10.25;;;2.80;;
59207;SDS011;44977;53.132;6.408;2022-10-18T22:57:45;7.70;;;2.60;;
59207;SDS011;44977;53.132;6.408;2022-10-18T23:02:47;10.23;;;2.75;;
59207;SDS011;44977;53.132;6.408;2022-10-18T23:07:48;9.82;;;3.00;;
59207;SDS011;44977;53.132;6.408;2022-10-18T23:12:49;8.52;;;2.88;;
59207;SDS011;44977;53.132;6.408;2022-10-18T23:17:50;8.77;;;2.95;;
59207;SDS011;44977;53.132;6.408;2022-10-18T23:22:53;8.48;;;2.88;;
59207;SDS011;44977;53.132;6.408;2022-10-18T23:27:55;8.80;;;2.78;;
59207;SDS011;44977;53.132;6.408;2022-10-18T23:32:56;8.95;;;2.88;;
59207;SDS011;44977;53.132;6.408;2022-10-18T23:37:56;9.93;;;2.70;;
59207;SDS011;44977;53.132;6.408;2022-10-18T23:42:57;10.55;;;2.50;;
59207;SDS011;44977;53.132;6.408;2022-10-18T23:47:58;6.50;;;2.17;;
59207;SDS011;44977;53.132;6.408;2022-10-18T23:52:58;8.85;;;2.40;;
59207;SDS011;44977;53.132;6.408;2022-10-18T23:57:59;12.18;;;2.92;;
